Portada
METAR-TAF:

METAR-TAF

Aeroports :

Messina, Itàlia

latitud: 38-12N, longitud: 015-33E, altitud: 59 m

Observació

L'informe es va fer fa 1 hora i 13 minuts, a les 01:55 UTC
Vent 3 kt del Nord/Nord-Oest
Temperatura 14°C
Humitat 88%
Pressió 1021 hPa
Visibilitat 10 km o més
sense núvols per sota de 1500 mi sense presència de cumulonimbus.

METAR: LICF 080155Z 34003KT CAVOK 14/12 Q1021 RMK FEW FEW080 QUK / QUL / VIS MAR 12 KM MON INVIS NC VIS MIN 9999

Hora: 04:08 (03:08 UTC)


TAF: manca

Observacions i pronòstics meteorològics de més de 4000 aeroports (METAR i TAF).

Les estacions disponibles són els punts grocs i vermells al mapa.

Posi el ratolí al punt desitjat per veure el nom de l'estació.

Feu clic per veure les observacions i els pronòstics meteorològics.

Per canviar el mapa: feu clic els botons verds amb una creu de color negre per apropar; al botó verd amb un guió per allunyar la imatge; o en les fletxes verdes per a mapes adjacents.


METAR-TAF: